Time;durP1;ratioP1;P1;durP2;ratioP2;P2;SDS_P1;SDS_P2;PMS_P1;PMS_P2;Temp;Humidity;BMP_temperature;BMP_pressure;BME280_temperature;BME280_humidity;BME280_pressure;Samples;Min_cycle;Max_cycle;Signal;HPM_P1;HPM_P2
2023/11/03 00:04:06;;;;;;;10.25;7.65;;;;;;;;;;10060900;28;20045;-70
2023/11/03 00:08:58;;;;;;;5.38;4.35;;;;;;;;;;10062140;28;20045;-70
2023/11/03 00:13:50;;;;;;;5.63;4.88;;;;;;;;;;10065407;28;20038;-70
2023/11/03 00:18:41;;;;;;;6.80;6.13;;;;;;;;;;10062171;28;20042;-71
2023/11/03 00:23:33;;;;;;;5.80;5.13;;;;;;;;;;10062474;28;20049;-70
2023/11/03 00:28:25;;;;;;;5.70;3.50;;;;;;;;;;10062490;28;20076;-70
2023/11/03 00:33:17;;;;;;;4.82;2.58;;;;;;;;;;10064116;28;20095;-71
2023/11/03 00:38:10;;;;;;;3.03;2.67;;;;;;;;;;10061775;28;20053;-71
2023/11/03 00:43:03;;;;;;;2.85;2.53;;;;;;;;;;10063372;28;20048;-70
2023/11/03 00:47:55;;;;;;;3.42;2.40;;;;;;;;;;10061806;28;20087;-71
2023/11/03 00:52:48;;;;;;;3.53;1.33;;;;;;;;;;10077848;28;20045;-70
2023/11/03 00:57:41;;;;;;;2.53;1.45;;;;;;;;;;10060230;28;20116;-69
2023/11/03 01:02:33;;;;;;;8.43;5.70;;;;;;;;;;10060509;28;20425;-69
2023/11/03 01:07:26;;;;;;;8.73;4.78;;;;;;;;;;10062067;28;20048;-69
2023/11/03 01:12:18;;;;;;;7.13;5.00;;;;;;;;;;10061069;28;20064;-70
2023/11/03 01:17:10;;;;;;;7.18;5.60;;;;;;;;;;10064475;28;20099;-70
2023/11/03 01:22:03;;;;;;;4.85;4.30;;;;;;;;;;10069872;28;20668;-69
2023/11/03 01:26:56;;;;;;;3.95;3.20;;;;;;;;;;10070338;28;20038;-70
2023/11/03 01:31:47;;;;;;;4.25;3.80;;;;;;;;;;10070210;28;20056;-70
2023/11/03 01:36:40;;;;;;;4.88;3.60;;;;;;;;;;10068217;28;20038;-70
2023/11/03 01:41:32;;;;;;;4.30;3.30;;;;;;;;;;10068889;28;20132;-70
2023/11/03 01:46:23;;;;;;;4.50;3.42;;;;;;;;;;10069082;28;20103;-70
2023/11/03 01:51:15;;;;;;;3.50;3.20;;;;;;;;;;10068997;28;20045;-70
2023/11/03 01:56:07;;;;;;;7.13;3.28;;;;;;;;;;10068500;28;20129;-70
2023/11/03 02:00:59;;;;;;;2.53;2.00;;;;;;;;;;10067159;28;20064;-70
2023/11/03 02:05:51;;;;;;;4.28;2.05;;;;;;;;;;10067290;28;20075;-71
2023/11/03 02:10:43;;;;;;;5.07;1.55;;;;;;;;;;10068406;28;20041;-70
2023/11/03 02:15:35;;;;;;;1.65;1.55;;;;;;;;;;10068192;28;20468;-70
2023/11/03 02:20:27;;;;;;;2.97;2.10;;;;;;;;;;10068236;28;20041;-70
2023/11/03 02:25:19;;;;;;;8.18;2.92;;;;;;;;;;10068302;28;20049;-71
2023/11/03 02:30:11;;;;;;;5.28;3.30;;;;;;;;;;10065653;28;20419;-71
2023/11/03 02:35:04;;;;;;;3.42;2.03;;;;;;;;;;10067254;28;20034;-70
2023/11/03 02:39:56;;;;;;;4.72;3.72;;;;;;;;;;10066193;28;20049;-69
2023/11/03 02:44:49;;;;;;;9.95;3.50;;;;;;;;;;10068684;28;20053;-70
2023/11/03 02:49:40;;;;;;;3.40;2.10;;;;;;;;;;10065581;28;20041;-70
2023/11/03 02:54:32;;;;;;;3.97;1.40;;;;;;;;;;10067405;28;20810;-70
2023/11/03 02:59:24;;;;;;;6.28;1.40;;;;;;;;;;10081290;28;20091;-69
2023/11/03 03:04:16;;;;;;;15.07;1.58;;;;;;;;;;10066428;28;20076;-70
2023/11/03 03:09:09;;;;;;;3.53;1.88;;;;;;;;;;10065798;28;20403;-69
2023/11/03 03:14:01;;;;;;;1.90;1.50;;;;;;;;;;10066034;28;20486;-69
2023/11/03 03:18:53;;;;;;;1.30;1.20;;;;;;;;;;10064542;28;20506;-70
2023/11/03 03:23:46;;;;;;;4.25;1.50;;;;;;;;;;10064733;28;20037;-70
2023/11/03 03:28:38;;;;;;;5.20;1.55;;;;;;;;;;10065523;28;20526;-70
2023/11/03 03:33:30;;;;;;;2.33;1.50;;;;;;;;;;10063744;28;20076;-69
2023/11/03 03:38:22;;;;;;;5.97;1.40;;;;;;;;;;10065265;28;20060;-70
2023/11/03 03:43:14;;;;;;;4.30;1.33;;;;;;;;;;10064130;28;20053;-69
2023/11/03 03:48:06;;;;;;;8.93;4.53;;;;;;;;;;10063561;28;20455;-70
2023/11/03 03:52:58;;;;;;;11.38;10.13;;;;;;;;;;10064174;28;20484;-70
2023/11/03 03:57:50;;;;;;;9.05;6.90;;;;;;;;;;10061209;28;20052;-70
2023/11/03 04:02:42;;;;;;;10.82;7.80;;;;;;;;;;10063925;28;20111;-69
2023/11/03 04:07:33;;;;;;;7.97;3.85;;;;;;;;;;10054789;28;20140;-70
2023/11/03 04:12:25;;;;;;;6.50;4.15;;;;;;;;;;10064031;28;20045;-69
2023/11/03 04:17:17;;;;;;;7.78;3.97;;;;;;;;;;10061910;28;20039;-70
2023/11/03 04:22:09;;;;;;;9.93;3.20;;;;;;;;;;10062686;28;20774;-69
2023/11/03 04:27:02;;;;;;;5.55;2.03;;;;;;;;;;10054379;28;20076;-70
2023/11/03 04:31:54;;;;;;;3.60;2.60;;;;;;;;;;10061776;28;20132;-70
2023/11/03 04:36:50;;;;;;;4.07;1.70;;;;;;;;;;10062993;28;20124;-69
2023/11/03 04:41:42;;;;;;;4.18;1.70;;;;;;;;;;10063428;28;20045;-69
2023/11/03 04:46:34;;;;;;;5.72;2.67;;;;;;;;;;10061081;28;20041;-69
2023/11/03 04:51:26;;;;;;;6.55;2.55;;;;;;;;;;10063233;28;20049;-68
2023/11/03 04:56:18;;;;;;;6.80;2.03;;;;;;;;;;10062371;28;20045;-69
2023/11/03 05:01:11;;;;;;;11.85;1.92;;;;;;;;;;10063148;28;20041;-70
2023/11/03 05:06:03;;;;;;;5.38;4.88;;;;;;;;;;10062813;28;20495;-69
2023/11/03 05:10:55;;;;;;;5.47;4.93;;;;;;;;;;10061579;28;20119;-68
2023/11/03 05:15:47;;;;;;;8.55;7.55;;;;;;;;;;10060799;28;20124;-69
2023/11/03 05:20:40;;;;;;;127.80;83.85;;;;;;;;;;10062492;28;20041;-69
2023/11/03 05:25:32;;;;;;;16.60;11.43;;;;;;;;;;10059989;28;20077;-69
2023/11/03 05:30:25;;;;;;;14.70;8.85;;;;;;;;;;10062734;28;20495;-69
2023/11/03 05:35:17;;;;;;;6.07;4.47;;;;;;;;;;10060966;28;20044;-70
2023/11/03 05:40:11;;;;;;;5.57;4.90;;;;;;;;;;10061969;28;20119;-69
2023/11/03 05:45:04;;;;;;;13.52;9.63;;;;;;;;;;10061343;28;20427;-69
2023/11/03 05:49:56;;;;;;;2.25;1.63;;;;;;;;;;10060695;28;20046;-69
2023/11/03 05:54:48;;;;;;;2.58;1.40;;;;;;;;;;10060649;28;20042;-69
2023/11/03 05:59:40;;;;;;;11.27;6.72;;;;;;;;;;10061593;28;20053;-69
2023/11/03 06:04:31;;;;;;;7.10;2.15;;;;;;;;;;10064515;28;20065;-69
2023/11/03 06:09:24;;;;;;;4.07;1.50;;;;;;;;;;10064330;28;20049;-68
2023/11/03 06:14:16;;;;;;;6.47;2.08;;;;;;;;;;10065159;28;20049;-70
2023/11/03 06:19:08;;;;;;;2.50;1.73;;;;;;;;;;10064874;28;20041;-67
2023/11/03 06:24:00;;;;;;;5.72;4.55;;;;;;;;;;10069917;28;20047;-69
2023/11/03 06:28:52;;;;;;;3.08;1.98;;;;;;;;;;10070198;28;20427;-70
2023/11/03 06:33:45;;;;;;;4.10;1.65;;;;;;;;;;10069953;28;20053;-69
2023/11/03 06:38:37;;;;;;;5.00;1.48;;;;;;;;;;10067860;28;20107;-68
2023/11/03 06:43:30;;;;;;;4.28;1.52;;;;;;;;;;10068722;28;20084;-68
2023/11/03 06:48:22;;;;;;;3.38;1.83;;;;;;;;;;10068713;28;20056;-70
2023/11/03 06:53:13;;;;;;;5.10;2.80;;;;;;;;;;10069503;28;20041;-69
2023/11/03 06:58:05;;;;;;;5.68;1.90;;;;;;;;;;10069267;28;20041;-69
2023/11/03 07:02:57;;;;;;;7.13;2.72;;;;;;;;;;10067232;28;20045;-69
2023/11/03 07:07:50;;;;;;;9.75;2.67;;;;;;;;;;10069246;28;20484;-69
2023/11/03 07:12:42;;;;;;;9.75;3.28;;;;;;;;;;10066096;28;20045;-69
2023/11/03 07:17:34;;;;;;;11.10;2.55;;;;;;;;;;10068261;28;20045;-68
2023/11/03 07:22:26;;;;;;;10.13;2.83;;;;;;;;;;10068506;28;20076;-70
2023/11/03 07:27:18;;;;;;;7.85;2.25;;;;;;;;;;10068555;28;20384;-70
2023/11/03 07:32:11;;;;;;;6.50;1.63;;;;;;;;;;10065118;28;20067;-70
2023/11/03 07:37:03;;;;;;;4.03;1.60;;;;;;;;;;10058807;28;20046;-68
2023/11/03 07:41:54;;;;;;;7.50;2.10;;;;;;;;;;10062281;28;20144;-70
2023/11/03 07:46:46;;;;;;;4.03;1.65;;;;;;;;;;10062964;28;20132;-70
2023/11/03 07:51:38;;;;;;;4.43;1.45;;;;;;;;;;10067026;28;20060;-70
2023/11/03 07:56:30;;;;;;;2.53;1.30;;;;;;;;;;10064811;28;20095;-70
2023/11/03 08:01:27;;;;;;;4.00;1.70;;;;;;;;;;10065290;28;20046;-70
2023/11/03 08:06:19;;;;;;;2.00;1.30;;;;;;;;;;10064189;28;20434;-70
2023/11/03 08:11:12;;;;;;;7.15;2.97;;;;;;;;;;10059444;28;20096;-70
2023/11/03 08:16:06;;;;;;;4.43;1.85;;;;;;;;;;10065382;28;20042;-70
2023/11/03 08:20:58;;;;;;;8.98;5.07;;;;;;;;;;10065847;28;20071;-70
2023/11/03 08:25:50;;;;;;;3.05;1.10;;;;;;;;;;10061404;28;20053;-71
2023/11/03 08:30:42;;;;;;;3.90;1.65;;;;;;;;;;10060534;28;20041;-73
2023/11/03 08:35:35;;;;;;;2.15;1.15;;;;;;;;;;10063435;28;20045;-71
2023/11/03 08:40:27;;;;;;;129.85;21.88;;;;;;;;;;10062767;28;20052;-68
2023/11/03 08:45:23;;;;;;;210.70;43.85;;;;;;;;;;10065444;28;20061;-73
2023/11/03 08:50:19;;;;;;;0.90;0.90;;;;;;;;;;10064532;28;20107;-72
2023/11/03 08:55:11;;;;;;;2.47;1.00;;;;;;;;;;10063862;28;20111;-71
2023/11/03 09:00:09;;;;;;;1.10;1.10;;;;;;;;;;10065022;28;20068;-72
2023/11/03 09:05:03;;;;;;;2.00;0.97;;;;;;;;;;10065205;28;20173;-71
2023/11/03 09:09:55;;;;;;;308.63;99.00;;;;;;;;;;10064481;28;20373;-71
2023/11/03 09:14:47;;;;;;;1.08;1.08;;;;;;;;;;10064816;28;20058;-71
2023/11/03 09:19:39;;;;;;;0.90;0.90;;;;;;;;;;10064457;28;20056;-73
2023/11/03 09:24:31;;;;;;;239.93;57.92;;;;;;;;;;10063581;28;20046;-71
2023/11/03 09:29:23;;;;;;;151.20;23.27;;;;;;;;;;10065047;28;20045;-74
2023/11/03 09:34:15;;;;;;;1.27;1.23;;;;;;;;;;10064071;28;20057;-75
2023/11/03 09:39:09;;;;;;;2.25;0.95;;;;;;;;;;10056639;28;20441;-74
2023/11/03 09:44:01;;;;;;;1.85;1.10;;;;;;;;;;10070787;28;20057;-74
2023/11/03 09:48:53;;;;;;;1.00;1.00;;;;;;;;;;10071610;28;20548;-74
2023/11/03 09:53:50;;;;;;;1.38;1.08;;;;;;;;;;10069266;28;20125;-73
2023/11/03 09:58:42;;;;;;;1.00;1.00;;;;;;;;;;10070980;28;20045;-73
2023/11/03 10:03:34;;;;;;;0.90;0.90;;;;;;;;;;10069524;28;20472;-74
2023/11/03 10:08:27;;;;;;;1.10;1.10;;;;;;;;;;10070500;28;20104;-74
2023/11/03 10:13:20;;;;;;;0.80;0.80;;;;;;;;;;10070485;28;20168;-74
2023/11/03 10:18:13;;;;;;;2.25;1.00;;;;;;;;;;10070953;28;20391;-72
2023/11/03 10:23:05;;;;;;;1.70;1.60;;;;;;;;;;10069725;28;20100;-74
2023/11/03 10:27:57;;;;;;;2.25;2.05;;;;;;;;;;10063908;28;20052;-73
2023/11/03 10:32:49;;;;;;;3.13;1.45;;;;;;;;;;10070063;28;20399;-72
2023/11/03 10:37:42;;;;;;;0.90;0.90;;;;;;;;;;10069903;28;20068;-73
2023/11/03 10:42:38;;;;;;;2.45;1.40;;;;;;;;;;10069658;28;20420;-73
2023/11/03 10:47:31;;;;;;;5.40;1.48;;;;;;;;;;10068540;28;20046;-73
2023/11/03 10:52:28;;;;;;;1.38;0.98;;;;;;;;;;10067756;28;20045;-73
2023/11/03 10:57:21;;;;;;;1.65;1.55;;;;;;;;;;10069739;28;20039;-73
2023/11/03 11:02:49;;;;;;;1.20;0.98;;;;;;;;;;10067232;28;20033;-73
2023/11/03 11:07:46;;;;;;;1.38;1.27;;;;;;;;;;10067770;28;20045;-72
2023/11/03 11:12:51;;;;;;;1.20;1.10;;;;;;;;;;10067099;28;20128;-73
2023/11/03 11:17:43;;;;;;;4.47;2.28;;;;;;;;;;10069068;28;20050;-73
2023/11/03 11:22:39;;;;;;;3.58;1.60;;;;;;;;;;10068779;28;20494;-73
2023/11/03 11:27:33;;;;;;;3.97;1.40;;;;;;;;;;10068169;28;20049;-73
2023/11/03 11:32:25;;;;;;;3.13;1.70;;;;;;;;;;10067613;28;20045;-73
2023/11/03 11:37:24;;;;;;;3.97;1.50;;;;;;;;;;10068474;28;20065;-73
2023/11/03 11:42:16;;;;;;;4.43;2.10;;;;;;;;;;10066142;28;20045;-73
2023/11/03 11:47:08;;;;;;;3.13;1.60;;;;;;;;;;10065168;28;20462;-73
2023/11/03 11:52:00;;;;;;;5.28;3.50;;;;;;;;;;10067598;28;20436;-73
2023/11/03 11:56:52;;;;;;;7.85;2.05;;;;;;;;;;10066292;28;20049;-73
2023/11/03 12:01:46;;;;;;;7.93;2.80;;;;;;;;;;10064512;28;20092;-72
2023/11/03 12:06:39;;;;;;;9.70;2.13;;;;;;;;;;10064229;28;20037;-73
2023/11/03 12:11:31;;;;;;;124.75;29.40;;;;;;;;;;10060021;28;20049;-73
2023/11/03 12:16:23;;;;;;;9.02;3.03;;;;;;;;;;10059654;28;20061;-73
2023/11/03 12:21:15;;;;;;;8.30;2.58;;;;;;;;;;10061069;28;20518;-72
2023/11/03 12:26:08;;;;;;;10.27;2.53;;;;;;;;;;10059993;28;20045;-73
2023/11/03 12:31:04;;;;;;;8.73;3.13;;;;;;;;;;10057168;28;20053;-73
2023/11/03 12:35:57;;;;;;;13.90;3.45;;;;;;;;;;10058095;28;20037;-72
2023/11/03 12:40:50;;;;;;;6.55;2.22;;;;;;;;;;10057944;28;20140;-72
2023/11/03 12:45:44;;;;;;;9.52;3.03;;;;;;;;;;10060130;28;20060;-72
2023/11/03 12:50:36;;;;;;;13.50;4.00;;;;;;;;;;10057732;28;20056;-73
2023/11/03 12:55:30;;;;;;;9.32;2.72;;;;;;;;;;10049329;28;20510;-75
2023/11/03 13:00:27;;;;;;;68.82;14.57;;;;;;;;;;10056132;28;20661;-75
2023/11/03 13:05:20;;;;;;;11.25;3.10;;;;;;;;;;10056251;28;20539;-75
2023/11/03 13:10:13;;;;;;;8.60;2.28;;;;;;;;;;10055037;28;20053;-75
2023/11/03 13:15:08;;;;;;;95.38;24.13;;;;;;;;;;10067872;28;20064;-75
2023/11/03 13:20:00;;;;;;;9.10;2.00;;;;;;;;;;10068292;28;20034;-74
2023/11/03 13:24:52;;;;;;;7.70;2.72;;;;;;;;;;10068364;28;20523;-75
2023/11/03 13:29:44;;;;;;;15.30;4.53;;;;;;;;;;10066316;28;20107;-75
2023/11/03 13:34:39;;;;;;;6.47;2.67;;;;;;;;;;10066147;28;20046;-75
2023/11/03 13:39:33;;;;;;;7.90;2.75;;;;;;;;;;10066864;28;20357;-75
2023/11/03 13:44:25;;;;;;;8.55;2.15;;;;;;;;;;10067319;28;20460;-75
2023/11/03 13:49:17;;;;;;;9.55;6.18;;;;;;;;;;10067529;28;20391;-75
2023/11/03 13:54:25;;;;;;;8.65;2.67;;;;;;;;;;10065796;28;20149;-74
2023/11/03 13:59:17;;;;;;;8.65;2.50;;;;;;;;;;10066727;28;20379;-74
2023/11/03 14:04:09;;;;;;;9.10;2.75;;;;;;;;;;10064753;28;20046;-73
2023/11/03 14:09:04;;;;;;;7.45;2.60;;;;;;;;;;10066067;28;20052;-73
2023/11/03 14:13:56;;;;;;;8.63;4.03;;;;;;;;;;10057054;28;20465;-73
2023/11/03 14:18:47;;;;;;;10.32;2.70;;;;;;;;;;10056732;28;20445;-73
2023/11/03 14:23:40;;;;;;;7.03;2.40;;;;;;;;;;10056773;28;20037;-72
2023/11/03 14:28:34;;;;;;;3.28;1.77;;;;;;;;;;10059332;28;20046;-73
2023/11/03 14:33:26;;;;;;;5.00;1.95;;;;;;;;;;10069238;28;20045;-74
2023/11/03 14:38:19;;;;;;;5.40;2.60;;;;;;;;;;10070025;28;20373;-74
2023/11/03 14:43:11;;;;;;;2.92;1.30;;;;;;;;;;10069619;28;20115;-72
2023/11/03 14:48:03;;;;;;;13.07;3.55;;;;;;;;;;10069289;28;20129;-73
2023/11/03 14:52:55;;;;;;;12.98;7.65;;;;;;;;;;10068865;28;20095;-74
2023/11/03 14:57:47;;;;;;;6.32;2.80;;;;;;;;;;10069218;28;20057;-73
2023/11/03 15:02:42;;;;;;;3.20;1.58;;;;;;;;;;10068107;28;20129;-72
2023/11/03 15:07:34;;;;;;;6.13;1.85;;;;;;;;;;10069118;28;20087;-74
2023/11/03 15:12:29;;;;;;;2.42;1.60;;;;;;;;;;10067074;28;20049;-73
2023/11/03 15:17:21;;;;;;;2.40;1.20;;;;;;;;;;10068306;28;20388;-71
2023/11/03 15:22:13;;;;;;;2.20;1.63;;;;;;;;;;10068297;28;20388;-74
2023/11/03 15:27:05;;;;;;;6.15;2.08;;;;;;;;;;10068289;28;20042;-73
2023/11/03 15:31:57;;;;;;;3.53;1.83;;;;;;;;;;10067432;28;20353;-73
2023/11/03 15:36:48;;;;;;;5.47;2.05;;;;;;;;;;10067870;28;20072;-72
2023/11/03 15:41:40;;;;;;;2.85;1.55;;;;;;;;;;10067316;28;20380;-71
2023/11/03 15:46:32;;;;;;;4.03;1.75;;;;;;;;;;10067173;28;20407;-73
2023/11/03 15:51:24;;;;;;;27.08;14.95;;;;;;;;;;10066988;28;20056;-73
2023/11/03 15:56:16;;;;;;;5.85;2.17;;;;;;;;;;10066796;28;20041;-73
2023/11/03 16:01:08;;;;;;;6.80;2.53;;;;;;;;;;10066997;28;20041;-73
2023/11/03 16:06:01;;;;;;;1.50;1.40;;;;;;;;;;10067175;28;20069;-72
2023/11/03 16:10:52;;;;;;;6.05;1.98;;;;;;;;;;10065629;28;20041;-72
2023/11/03 16:15:44;;;;;;;5.55;2.70;;;;;;;;;;10066179;28;20037;-72
2023/11/03 16:20:36;;;;;;;14.13;6.03;;;;;;;;;;10064489;28;20046;-72
2023/11/03 16:25:28;;;;;;;5.82;3.25;;;;;;;;;;10062712;28;20103;-72
2023/11/03 16:30:20;;;;;;;7.18;3.53;;;;;;;;;;10060494;28;20125;-73
2023/11/03 16:35:13;;;;;;;5.75;2.05;;;;;;;;;;10062293;28;20085;-72
2023/11/03 16:40:05;;;;;;;4.50;2.28;;;;;;;;;;10053651;28;20424;-72
2023/11/03 16:44:58;;;;;;;8.63;2.58;;;;;;;;;;10058850;28;20060;-72
2023/11/03 16:49:50;;;;;;;4.03;2.38;;;;;;;;;;10050211;28;20056;-72
2023/11/03 16:54:42;;;;;;;5.20;2.45;;;;;;;;;;10050493;28;20041;-71
2023/11/03 16:59:34;;;;;;;5.20;2.92;;;;;;;;;;10057763;28;20072;-72
2023/11/03 17:04:26;;;;;;;6.75;2.70;;;;;;;;;;10064507;28;20405;-72
2023/11/03 17:09:21;;;;;;;11.32;5.60;;;;;;;;;;10061027;28;20049;-72
2023/11/03 17:14:16;;;;;;;7.88;6.07;;;;;;;;;;10062800;28;20115;-72
2023/11/03 17:19:08;;;;;;;12.95;7.28;;;;;;;;;;10062107;28;20356;-73
2023/11/03 17:24:00;;;;;;;8.15;3.60;;;;;;;;;;10060408;28;20041;-72
2023/11/03 17:28:54;;;;;;;3.42;2.13;;;;;;;;;;10060810;28;20476;-73
2023/11/03 17:33:46;;;;;;;4.22;2.08;;;;;;;;;;10058166;28;20061;-70
2023/11/03 17:38:38;;;;;;;3.03;2.13;;;;;;;;;;10062267;28;20055;-72
2023/11/03 17:43:30;;;;;;;3.65;2.75;;;;;;;;;;10064230;28;20478;-72
2023/11/03 17:48:25;;;;;;;2.17;1.92;;;;;;;;;;10063199;28;20441;-72
2023/11/03 17:53:17;;;;;;;4.45;2.10;;;;;;;;;;10063084;28;20464;-72
2023/11/03 17:58:10;;;;;;;3.03;1.63;;;;;;;;;;10065398;28;20042;-72
2023/11/03 18:03:02;;;;;;;3.22;2.42;;;;;;;;;;10070778;28;20041;-72
2023/11/03 18:07:54;;;;;;;3.20;2.33;;;;;;;;;;10062558;28;20041;-72
2023/11/03 18:12:46;;;;;;;2.65;2.15;;;;;;;;;;10068473;28;20041;-70
2023/11/03 18:17:39;;;;;;;6.45;2.53;;;;;;;;;;10070905;28;20049;-72
2023/11/03 18:22:31;;;;;;;2.40;1.60;;;;;;;;;;10065306;28;20092;-69
2023/11/03 18:27:25;;;;;;;2.72;2.08;;;;;;;;;;10071504;28;20061;-71
2023/11/03 18:32:17;;;;;;;7.70;2.58;;;;;;;;;;10068073;28;20045;-72
2023/11/03 18:37:09;;;;;;;5.45;2.53;;;;;;;;;;10057446;28;20037;-71
2023/11/03 18:42:01;;;;;;;8.57;2.13;;;;;;;;;;10056918;28;20373;-72
2023/11/03 18:46:53;;;;;;;2.75;1.70;;;;;;;;;;10061362;28;20045;-71
2023/11/03 18:51:45;;;;;;;3.28;1.80;;;;;;;;;;10064793;28;20095;-71
2023/11/03 18:56:38;;;;;;;3.58;1.70;;;;;;;;;;10059918;28;20045;-72
2023/11/03 19:01:50;;;;;;;4.70;1.63;;;;;;;;;;10042076;28;20029;-72
2023/11/03 19:06:45;;;;;;;3.25;2.13;;;;;;;;;;10066647;28;20040;-72
2023/11/03 19:11:59;;;;;;;2.08;1.52;;;;;;;;;;10064549;28;20091;-70
2023/11/03 19:16:51;;;;;;;111.47;26.88;;;;;;;;;;10067834;28;20086;-72
2023/11/03 19:21:46;;;;;;;1.88;1.35;;;;;;;;;;10066567;28;20052;-72
2023/11/03 19:26:38;;;;;;;1.95;1.50;;;;;;;;;;10060739;28;20045;-72
2023/11/03 19:31:30;;;;;;;3.25;2.22;;;;;;;;;;10063341;28;20072;-72
2023/11/03 19:36:23;;;;;;;3.17;2.88;;;;;;;;;;10062996;28;20456;-72
2023/11/03 19:41:16;;;;;;;9.38;4.60;;;;;;;;;;10065924;28;20045;-72
2023/11/03 19:46:08;;;;;;;7.55;3.83;;;;;;;;;;10067949;28;20461;-72
2023/11/03 19:51:00;;;;;;;3.00;2.70;;;;;;;;;;10067476;28;20049;-71
2023/11/03 19:55:54;;;;;;;5.75;4.07;;;;;;;;;;10062742;28;20112;-72
2023/11/03 20:00:47;;;;;;;4.45;3.10;;;;;;;;;;10061466;28;20045;-71
2023/11/03 20:05:40;;;;;;;3.72;2.70;;;;;;;;;;10061299;28;20041;-72
2023/11/03 20:10:32;;;;;;;4.38;3.40;;;;;;;;;;10062600;28;20045;-72
2023/11/03 20:15:24;;;;;;;2.47;1.92;;;;;;;;;;10052503;28;20096;-69
2023/11/03 20:20:18;;;;;;;4.30;3.08;;;;;;;;;;10059608;28;20128;-70
2023/11/03 20:25:10;;;;;;;1.50;1.40;;;;;;;;;;10078404;28;20047;-70
2023/11/03 20:30:03;;;;;;;3.75;2.08;;;;;;;;;;10090119;28;20071;-71
2023/11/03 20:34:55;;;;;;;5.50;2.58;;;;;;;;;;10075084;28;20067;-71
2023/11/03 20:39:47;;;;;;;4.07;2.05;;;;;;;;;;10088479;28;20063;-69
2023/11/03 20:44:39;;;;;;;3.03;2.53;;;;;;;;;;10082421;28;20134;-72
2023/11/03 20:49:31;;;;;;;3.10;2.10;;;;;;;;;;10078469;28;20125;-70
2023/11/03 20:54:24;;;;;;;7.45;4.43;;;;;;;;;;10080382;28;20127;-72
2023/11/03 20:59:18;;;;;;;2.42;1.83;;;;;;;;;;10104791;28;20041;-72
2023/11/03 21:04:10;;;;;;;6.85;3.85;;;;;;;;;;10083136;28;20071;-70
2023/11/03 21:09:02;;;;;;;26.67;14.73;;;;;;;;;;10077862;28;20045;-72
2023/11/03 21:13:54;;;;;;;17.63;11.15;;;;;;;;;;10090948;28;20049;-72
2023/11/03 21:18:46;;;;;;;6.00;4.10;;;;;;;;;;10086806;28;20033;-72
2023/11/03 21:23:39;;;;;;;11.02;5.28;;;;;;;;;;10099110;28;20369;-71
2023/11/03 21:28:32;;;;;;;6.45;3.63;;;;;;;;;;10103952;28;20037;-70
2023/11/03 21:33:23;;;;;;;9.25;5.65;;;;;;;;;;10063500;28;20121;-72
2023/11/03 21:38:16;;;;;;;6.72;3.80;;;;;;;;;;10082824;28;20135;-70
2023/11/03 21:43:09;;;;;;;5.57;2.97;;;;;;;;;;10100413;28;20136;-69
2023/11/03 21:48:01;;;;;;;7.03;3.95;;;;;;;;;;10098124;28;20049;-71
2023/11/03 21:52:54;;;;;;;3.70;2.97;;;;;;;;;;10107224;28;20059;-71
2023/11/03 21:57:47;;;;;;;9.65;7.57;;;;;;;;;;10111890;28;20047;-70
2023/11/03 22:02:39;;;;;;;6.53;3.42;;;;;;;;;;10111194;28;20112;-69
2023/11/03 22:07:31;;;;;;;7.05;3.90;;;;;;;;;;10111144;28;20577;-71
2023/11/03 22:12:23;;;;;;;3.78;2.70;;;;;;;;;;10109871;28;20363;-69
2023/11/03 22:17:15;;;;;;;6.75;3.78;;;;;;;;;;10110128;28;20045;-71
2023/11/03 22:22:07;;;;;;;4.38;2.50;;;;;;;;;;10108860;28;20045;-71
2023/11/03 22:26:59;;;;;;;4.60;2.50;;;;;;;;;;10108931;28;20048;-71
2023/11/03 22:31:51;;;;;;;4.10;2.25;;;;;;;;;;10085782;28;20057;-72
2023/11/03 22:36:43;;;;;;;3.90;1.90;;;;;;;;;;10095032;28;20127;-70
2023/11/03 22:41:36;;;;;;;4.75;2.15;;;;;;;;;;10108390;28;20052;-69
2023/11/03 22:46:27;;;;;;;7.70;4.18;;;;;;;;;;10084110;28;20037;-70
2023/11/03 22:51:19;;;;;;;6.32;3.63;;;;;;;;;;10058247;28;20049;-71
2023/11/03 22:56:17;;;;;;;12.20;4.38;;;;;;;;;;10093513;28;20136;-71
2023/11/03 23:01:09;;;;;;;7.07;3.20;;;;;;;;;;10094424;28;20435;-69
2023/11/03 23:06:04;;;;;;;5.22;3.45;;;;;;;;;;10080744;28;20071;-71
2023/11/03 23:10:56;;;;;;;5.68;1.88;;;;;;;;;;10076229;28;20055;-71
2023/11/03 23:15:48;;;;;;;1.75;1.65;;;;;;;;;;10054951;28;20144;-71
2023/11/03 23:20:40;;;;;;;13.20;6.47;;;;;;;;;;10079045;28;20112;-71
2023/11/03 23:25:32;;;;;;;10.20;6.30;;;;;;;;;;10078918;28;20095;-68
2023/11/03 23:30:24;;;;;;;2.47;2.28;;;;;;;;;;10099534;28;20108;-71
2023/11/03 23:35:16;;;;;;;3.03;2.83;;;;;;;;;;10095396;28;20144;-70
2023/11/03 23:40:08;;;;;;;1.70;1.50;;;;;;;;;;10095575;28;20128;-71
2023/11/03 23:45:01;;;;;;;3.97;1.90;;;;;;;;;;10107306;28;20102;-71
2023/11/03 23:49:54;;;;;;;2.88;1.10;;;;;;;;;;10101574;28;20116;-70
2023/11/03 23:54:45;;;;;;;1.67;1.25;;;;;;;;;;10107815;28;20037;-71
2023/11/03 23:59:37;;;;;;;2.25;1.35;;;;;;;;;;10106744;28;20041;-71
